메인 페이지
METAR-TAF:

METAR-TAF

공항 :

멤피스 국제공항

멤피스, 테네시, 미국

위도: 35-03-40N, 경도: 089-59-06W, 고도: 101m

현재 날씨관측

예보는 38분 전, 15:54시(UTC)에 발표되었습니다.
북북동9kt
온도 -3°C
습도 68%
기압 1037 hPa
시정: 16.1km
고도 2000ft 상공 흐림

METAR: KMEM 201554Z 03009KT 10SM OVC020 M03/M08 A3062 RMK AO2 SLP374 T10331083

시각: 10:32 (16:32 UTC)

예보

예보는 1 시간 40분 전, 14:52시(UTC)에 발표되었습니다.
예보 대상 시간: 20일 15시부터 21일 18시까지 (UTC)
9kt
시정: 10km
고도 1800ft 상공 흐림
20일 2300시부터 (UTC)
7kt
시정: 10km
고도 4000ft 상공 구름 많음
고도 10000ft 상공 흐림
일시적
21일 02시부터 21일 05시까지 (UTC)
약한눈
21일 0600시부터 (UTC)
북북동5kt
시정: 10km
고도 4000ft 상공 구름 많음
21일 1400시부터 (UTC)
북북동5kt
시정: 10km
고도 25000ft 상공 구름 조금

TAF: KMEM 201452Z 2015/2118 01009KT P6SM OVC018 FM202300 01007KT P6SM BKN040 OVC100 TEMPO 2102/2105 -SN FM210600 03005KT P6SM BKN040 FM211400 03005KT P6SM FEW250

4,000개 이상의 공항 관측 자료 및 예보 (METAR 및 TAF 보고).

지도상에서 검색 가능한 기상관측소가 노란 점과 빨간 점으로 표시되어 있습니다.

기상관측소 명을 보려면 표시 위로 마우스를 이동하세요.

날씨 관측과 예보를 보려면 클릭하세요.

지도 변경 : 확대하려면 엑스 표시가 있는 녹색 버튼, 축소하려면 빼기 표시가 있는 녹색 버튼, 다음 페이지의 지도를 보려면 녹색 화살표를 클릭하세요.


METAR-TAF: